createdAt,value
2017-02-22T00:02:04.172Z,12.55
2017-02-22T00:04:27.649Z,12.53
2017-02-22T00:06:28.816Z,12.58
2017-02-22T00:08:52.358Z,12.53
2017-02-22T00:11:02.017Z,12.39
2017-02-22T00:13:03.687Z,12.58
2017-02-22T00:15:13.340Z,12.36
2017-02-22T00:17:36.871Z,12.33
2017-02-22T00:20:00.339Z,12.54
2017-02-22T00:22:10.027Z,12.55
2017-02-22T00:24:33.547Z,12.4
2017-02-22T00:26:57.020Z,12.29
2017-02-22T00:29:20.493Z,12.45
2017-02-22T00:31:43.951Z,12.55
2017-02-22T00:34:07.363Z,12.4
2017-02-22T00:36:30.796Z,12.26
2017-02-22T00:38:54.261Z,12.12
2017-02-22T00:41:17.749Z,12.39
2017-02-22T00:43:41.211Z,12.33
2017-02-22T00:46:04.654Z,12.45
2017-02-22T00:48:28.127Z,12.65
2017-02-22T00:50:43.204Z,12.51
2017-02-22T00:53:06.663Z,12.54
2017-02-22T00:54:59.724Z,12.43
2017-02-22T00:57:23.177Z,12.45
2017-02-22T00:59:46.645Z,12.54
2017-02-22T01:02:10.111Z,12.37
2017-02-22T01:04:25.179Z,12.57
2017-02-22T01:06:48.658Z,12.44
2017-02-22T01:09:12.107Z,12.57
2017-02-22T01:11:27.191Z,12.2
2017-02-22T01:13:50.666Z,12.08
2017-02-22T01:16:14.150Z,11.97
2017-02-22T01:17:49.879Z,12.14
2017-02-22T01:20:04.944Z,12.15
2017-02-22T01:21:40.678Z,12.1
2017-02-22T01:24:04.155Z,12.18
2017-02-22T01:26:27.626Z,12.23
2017-02-22T01:28:42.717Z,12.3
2017-02-22T01:30:18.440Z,12.32
2017-02-22T01:32:41.918Z,12.39
2017-02-22T01:35:05.382Z,12.28
2017-02-22T01:37:28.840Z,12.37
2017-02-22T01:39:43.941Z,12.21
2017-02-22T01:42:07.379Z,12.15
2017-02-22T01:44:17.071Z,12.15
2017-02-22T01:46:40.490Z,12.12
2017-02-22T01:49:03.960Z,12.23
2017-02-22T01:51:27.421Z,12.14
2017-02-22T01:53:50.865Z,11.93
2017-02-22T01:56:14.260Z,11.91
2017-02-22T01:58:37.550Z,11.91
2017-02-22T02:01:00.912Z,12.05
2017-02-22T02:03:24.280Z,12
2017-02-22T02:05:47.619Z,12.02
2017-02-22T02:08:11.097Z,12
2017-02-22T02:10:34.453Z,12.15
2017-02-22T02:12:57.886Z,12.2
2017-02-22T02:15:21.234Z,11.95
2017-02-22T02:17:36.196Z,11.93
2017-02-22T02:19:59.519Z,12.05
2017-02-22T02:22:22.901Z,12.02
2017-02-22T02:24:46.245Z,11.96
2017-02-22T02:27:09.717Z,12.12
2017-02-22T02:29:33.168Z,12.1
2017-02-22T02:31:56.651Z,12.28
2017-02-22T02:34:11.717Z,12.26
2017-02-22T02:36:26.794Z,12.18
2017-02-22T02:38:50.243Z,12.2
2017-02-22T02:41:13.718Z,12.25
2017-02-22T02:43:37.207Z,12.08
2017-02-22T02:45:52.167Z,12.25
2017-02-22T02:48:15.639Z,12.18
2017-02-22T02:50:39.112Z,11.95
2017-02-22T02:53:02.458Z,12.08
2017-02-22T02:55:25.934Z,11.93
2017-02-22T02:57:49.402Z,11.95
2017-02-22T02:59:50.560Z,11.99
2017-02-22T03:02:14.007Z,11.97
2017-02-22T03:04:37.469Z,12
2017-02-22T03:07:00.939Z,11.95
2017-02-22T03:09:24.300Z,11.86
2017-02-22T03:11:47.672Z,11.91
2017-02-22T03:14:11.135Z,11.93
2017-02-22T03:16:34.605Z,12.03
2017-02-22T03:18:49.666Z,11.95
2017-02-22T03:21:13.046Z,12
2017-02-22T03:23:28.107Z,12.11
2017-02-22T03:25:51.574Z,12.05
2017-02-22T03:28:15.048Z,12.02
2017-02-22T03:30:38.510Z,11.95
2017-02-22T03:33:01.884Z,12.07
2017-02-22T03:35:25.243Z,12.12
2017-02-22T03:37:34.879Z,12.07
2017-02-22T03:39:49.955Z,12
2017-02-22T03:42:04.919Z,12.08
2017-02-22T03:44:19.894Z,12.02
2017-02-22T03:46:34.976Z,11.99
2017-02-22T03:48:49.924Z,12.21
2017-02-22T03:51:13.397Z,12.08
2017-02-22T03:53:36.757Z,11.91
2017-02-22T03:56:00.137Z,11.77
2017-02-22T03:58:23.485Z,11.88
2017-02-22T04:00:38.558Z,11.74
2017-02-22T04:03:01.917Z,11.81
2017-02-22T04:05:25.290Z,11.96
2017-02-22T04:07:48.758Z,12.07
2017-02-22T04:10:12.224Z,11.95
2017-02-22T04:12:35.735Z,11.96
2017-02-22T04:14:59.166Z,11.8
2017-02-22T04:17:22.632Z,11.65
2017-02-22T04:19:46.099Z,11.81
2017-02-22T04:22:09.448Z,12.03
2017-02-22T04:24:32.929Z,11.89
2017-02-22T04:26:47.996Z,12.1
2017-02-22T04:29:11.471Z,11.95
2017-02-22T04:31:34.953Z,11.93
2017-02-22T04:33:58.322Z,12
2017-02-22T04:36:21.678Z,11.93
2017-02-22T04:38:45.124Z,11.81
2017-02-22T04:41:08.521Z,12.12
2017-02-22T04:43:31.967Z,12
2017-02-22T04:45:41.612Z,11.86
2017-02-22T04:48:05.071Z,11.83
2017-02-22T04:50:20.144Z,11.86
2017-02-22T04:52:27.739Z,11.73
2017-02-22T04:54:37.892Z,11.67
2017-02-22T04:57:01.362Z,11.65
2017-02-22T04:59:02.503Z,11.67
2017-02-22T05:01:25.973Z,11.71
2017-02-22T05:03:49.441Z,11.58
2017-02-22T05:06:12.802Z,11.65
2017-02-22T05:08:36.171Z,11.81
2017-02-22T05:10:59.533Z,11.7
2017-02-22T05:13:22.897Z,11.63
2017-02-22T05:15:37.866Z,11.68
2017-02-22T05:18:01.233Z,11.7
2017-02-22T05:20:16.200Z,11.89
2017-02-22T05:22:39.564Z,11.62
2017-02-22T05:25:02.967Z,11.71
2017-02-22T05:27:26.309Z,11.93
2017-02-22T05:29:49.674Z,11.93
2017-02-22T05:32:13.126Z,11.89
2017-02-22T05:34:36.595Z,11.8
2017-02-22T05:36:59.967Z,11.91
2017-02-22T05:39:23.323Z,11.86
2017-02-22T05:41:46.692Z,11.93
2017-02-22T05:44:10.166Z,11.95
2017-02-22T05:46:33.622Z,11.85
2017-02-22T05:48:48.691Z,12.03
2017-02-22T05:51:12.157Z,11.86
2017-02-22T05:53:35.561Z,11.76
2017-02-22T05:55:58.920Z,11.86
2017-02-22T05:58:13.862Z,11.89
2017-02-22T06:00:37.285Z,11.86
2017-02-22T06:03:00.632Z,11.8
2017-02-22T06:05:24.013Z,11.85
2017-02-22T06:07:47.328Z,11.88
2017-02-22T06:10:10.711Z,11.89
2017-02-22T06:12:34.191Z,11.83
2017-02-22T06:14:57.567Z,11.83
2017-02-22T06:16:59.166Z,11.77
2017-02-22T06:19:22.562Z,11.58
2017-02-22T06:21:45.951Z,11.6
2017-02-22T06:24:09.312Z,11.49
2017-02-22T06:25:45.527Z,11.63
2017-02-22T06:28:09.157Z,11.71
2017-02-22T06:30:32.538Z,11.95
2017-02-22T06:33:02.528Z,11.73
2017-02-22T06:35:27.185Z,11.76
2017-02-22T06:37:50.837Z,11.65
2017-02-22T06:40:13.938Z,11.74
2017-02-22T06:42:37.770Z,11.86
2017-02-22T06:45:01.281Z,11.91
2017-02-22T06:47:24.645Z,11.99
2017-02-22T06:49:48.045Z,11.86
2017-02-22T06:52:03.086Z,11.83
2017-02-22T06:54:26.464Z,11.91
2017-02-22T06:56:49.909Z,11.68
2017-02-22T06:59:13.276Z,11.63
2017-02-22T07:01:36.695Z,11.81
2017-02-22T07:04:00.094Z,11.65
2017-02-22T07:06:15.048Z,11.73
2017-02-22T07:08:38.365Z,11.89
2017-02-22T07:11:01.693Z,11.97
2017-02-22T07:13:25.010Z,12
2017-02-22T07:15:48.328Z,11.86
2017-02-22T07:18:03.322Z,11.83
2017-02-22T07:20:26.814Z,12.02
2017-02-22T07:22:50.173Z,11.91
2017-02-22T07:25:13.608Z,12.02
2017-02-22T07:27:38.415Z,11.91
2017-02-22T07:30:01.824Z,12.07
2017-02-22T07:32:25.156Z,12.05
2017-02-22T07:34:48.514Z,12.05
2017-02-22T07:37:11.895Z,12.43
2017-02-22T07:39:35.259Z,12.35
2017-02-22T07:41:59.285Z,12.55
2017-02-22T07:44:24.624Z,12.43
2017-02-22T07:46:48.190Z,12.55
2017-02-22T07:49:11.754Z,12.37
2017-02-22T07:51:35.357Z,12.57
2017-02-22T07:53:58.890Z,12.54
2017-02-22T07:56:22.963Z,12.65
2017-02-22T07:58:46.383Z,13.6
2017-02-22T08:01:09.878Z,13.58
2017-02-22T08:03:33.314Z,13.67
2017-02-22T08:05:56.841Z,13.42
2017-02-22T08:08:20.341Z,13.24
2017-02-22T08:10:43.827Z,13.24
2017-02-22T08:13:07.347Z,13.16
2017-02-22T08:15:09.063Z,12.94
2017-02-22T08:17:24.224Z,12.69
2017-02-22T08:19:47.754Z,12.66
2017-02-22T08:22:11.265Z,12.68
2017-02-22T08:24:34.726Z,13.02
2017-02-22T08:26:58.174Z,13.16
2017-02-22T08:28:59.849Z,13.2
2017-02-22T08:31:23.307Z,13.4
2017-02-22T08:33:46.839Z,13.58
2017-02-22T08:36:10.309Z,13.42
2017-02-22T08:38:12.006Z,13.28
2017-02-22T08:40:35.554Z,13.16
2017-02-22T08:42:59.069Z,13.01
2017-02-22T08:45:22.591Z,13.02
2017-02-22T08:47:46.098Z,12.91
2017-02-22T08:50:09.559Z,12.8
2017-02-22T08:52:33.082Z,13.01
2017-02-22T08:54:56.633Z,12.84
2017-02-22T08:57:19.960Z,12.9
2017-02-22T08:59:43.426Z,13.09
2017-02-22T09:02:06.912Z,13.64
2017-02-22T09:04:30.350Z,13.42
2017-02-22T09:06:53.805Z,13.73
2017-02-22T09:09:17.367Z,13.62
2017-02-22T09:11:40.863Z,13.62
2017-02-22T09:14:04.373Z,13.75
2017-02-22T09:16:27.813Z,13.65
2017-02-22T09:18:51.330Z,13.78
2017-02-22T09:21:14.794Z,13.91
2017-02-22T09:23:38.410Z,14
2017-02-22T09:26:01.923Z,14.13
2017-02-22T09:28:25.497Z,14.05
2017-02-22T09:30:48.940Z,14.28
2017-02-22T09:33:12.643Z,14.4
2017-02-22T09:35:36.220Z,13.68
2017-02-22T09:37:59.858Z,13.65
2017-02-22T09:40:23.324Z,13.94
2017-02-22T09:42:47.023Z,13.62
2017-02-22T09:45:10.601Z,13.65
2017-02-22T09:47:26.795Z,13.86
2017-02-22T09:49:50.388Z,13.76
2017-02-22T09:52:13.950Z,13.97
2017-02-22T09:54:37.503Z,14.22
2017-02-22T09:57:01.270Z,13.97
2017-02-22T09:59:24.972Z,13.65
2017-02-22T10:01:48.557Z,13.82
2017-02-22T10:04:12.080Z,13.86
2017-02-22T10:06:35.634Z,14
2017-02-22T10:08:59.160Z,13.76
2017-02-22T10:11:22.769Z,13.65
2017-02-22T10:13:46.590Z,13.79
2017-02-22T10:16:11.205Z,13.67
2017-02-22T10:18:26.342Z,13.98
2017-02-22T10:20:50.013Z,13.87
2017-02-22T10:23:14.597Z,14
2017-02-22T10:25:38.150Z,13.89
2017-02-22T10:28:01.695Z,13.49
2017-02-22T10:30:26.315Z,13.49
2017-02-22T10:32:49.873Z,13.3
2017-02-22T10:35:13.408Z,13.23
2017-02-22T10:37:37.939Z,13.39
2017-02-22T10:40:01.463Z,13.37
2017-02-22T10:42:25.920Z,13.33
2017-02-22T10:44:49.424Z,13.55
2017-02-22T10:47:04.497Z,13.39
2017-02-22T10:49:28.058Z,13.52
2017-02-22T10:51:51.587Z,13.31
2017-02-22T10:54:15.153Z,13.47
2017-02-22T10:56:38.684Z,13.62
2017-02-22T10:59:02.131Z,13.19
2017-02-22T11:01:25.827Z,13.75
2017-02-22T11:03:49.323Z,13.7
2017-02-22T11:06:12.846Z,13.57
2017-02-22T11:08:36.364Z,13.85
2017-02-22T11:10:59.927Z,13.85
2017-02-22T11:13:23.515Z,13.73
2017-02-22T11:15:47.068Z,13.79
2017-02-22T11:18:10.661Z,13.93
2017-02-22T11:20:34.190Z,14.08
2017-02-22T11:22:57.692Z,14.03
2017-02-22T11:25:21.310Z,13.85
2017-02-22T11:27:44.850Z,13.68
2017-02-22T11:30:08.625Z,14.07
2017-02-22T11:32:32.349Z,14.03
2017-02-22T11:34:55.757Z,13.86
2017-02-22T11:37:19.408Z,14.01
2017-02-22T11:39:34.572Z,14.07
2017-02-22T11:41:58.181Z,13.76
2017-02-22T11:44:21.619Z,14
2017-02-22T11:46:46.228Z,14
2017-02-22T11:49:09.857Z,14.2
2017-02-22T11:51:35.451Z,14.44
2017-02-22T11:53:58.950Z,14.23
2017-02-22T11:56:22.541Z,13.94
2017-02-22T11:58:46.091Z,13.97
2017-02-22T12:01:09.665Z,14.23
2017-02-22T12:03:33.179Z,14
2017-02-22T12:05:56.725Z,14.33
2017-02-22T12:08:20.317Z,14.62
2017-02-22T12:10:21.507Z,14.13
2017-02-22T12:12:45.107Z,14.3
2017-02-22T12:15:08.719Z,14.04
2017-02-22T12:17:32.509Z,13.86
2017-02-22T12:19:56.099Z,13.76
2017-02-22T12:22:19.690Z,14.04
2017-02-22T12:23:55.926Z,14.18
2017-02-22T12:26:19.512Z,14.28
2017-02-22T12:28:43.111Z,14.25
2017-02-22T12:31:06.734Z,14.11
2017-02-22T12:32:42.999Z,13.98
2017-02-22T12:35:06.797Z,14.41
2017-02-22T12:37:30.461Z,14.23
2017-02-22T12:39:53.969Z,14.01
2017-02-22T12:42:17.611Z,13.83
2017-02-22T12:44:41.973Z,14.03
2017-02-22T12:46:52.148Z,13.67
2017-02-22T12:49:16.549Z,13.6
2017-02-22T12:51:39.466Z,13.79
2017-02-22T12:54:03.266Z,13.71
2017-02-22T12:56:27.822Z,13.82
2017-02-22T12:58:51.503Z,13.54
2017-02-22T13:01:17.042Z,13.67
2017-02-22T13:02:52.846Z,13.85
2017-02-22T13:05:17.614Z,13.89
2017-02-22T13:07:42.446Z,13.6
2017-02-22T13:10:05.773Z,13.82
2017-02-22T13:12:29.568Z,13.67
2017-02-22T13:14:53.681Z,13.47
2017-02-22T13:17:19.367Z,13.54
2017-02-22T13:19:43.197Z,13.5
2017-02-22T13:22:07.396Z,13.64
2017-02-22T13:24:33.844Z,13.36
2017-02-22T13:26:57.507Z,13.52
2017-02-22T13:29:21.483Z,13.16
2017-02-22T13:31:45.207Z,13.09
2017-02-22T13:34:00.351Z,13.36
2017-02-22T13:36:23.911Z,13.37
2017-02-22T13:38:47.468Z,13.11
2017-02-22T13:41:13.137Z,13.3
2017-02-22T13:43:36.667Z,12.95
2017-02-22T13:46:00.395Z,13.28
2017-02-22T13:48:24.227Z,13.24
2017-02-22T13:50:47.954Z,13.2
2017-02-22T13:53:11.474Z,12.81
2017-02-22T13:55:35.079Z,12.58
2017-02-22T13:57:59.227Z,12.75
2017-02-22T14:00:22.775Z,12.7
2017-02-22T14:02:46.240Z,12.43
2017-02-22T14:05:09.752Z,12.57
2017-02-22T14:07:33.185Z,12.55
2017-02-22T14:09:57.204Z,12.61
2017-02-22T14:12:20.615Z,12.62
2017-02-22T14:14:44.227Z,12.69
2017-02-22T14:17:08.715Z,12.54
2017-02-22T14:19:32.197Z,12.58
2017-02-22T14:21:55.584Z,12.73
2017-02-22T14:24:19.067Z,12.75
2017-02-22T14:26:42.498Z,12.66
2017-02-22T14:29:07.300Z,12.69
2017-02-22T14:31:30.791Z,12.66
2017-02-22T14:33:54.459Z,12.58
2017-02-22T14:36:17.852Z,12.66
2017-02-22T14:38:32.908Z,12.72
2017-02-22T14:40:56.482Z,12.93
2017-02-22T14:43:19.899Z,12.93
2017-02-22T14:45:43.413Z,12.57
2017-02-22T14:48:06.828Z,12.62
2017-02-22T14:50:30.662Z,12.69
2017-02-22T14:52:55.394Z,12.75
2017-02-22T14:55:18.995Z,13.05
2017-02-22T14:57:42.464Z,12.86
2017-02-22T15:00:06.304Z,12.86
2017-02-22T15:02:30.874Z,12.68
2017-02-22T15:04:54.447Z,12.68
2017-02-22T15:07:17.913Z,12.69
2017-02-22T15:09:41.593Z,12.55
2017-02-22T15:12:04.993Z,12.62
2017-02-22T15:14:28.505Z,12.65
2017-02-22T15:16:52.009Z,13.02
2017-02-22T15:19:15.627Z,12.83
2017-02-22T15:21:39.153Z,12.5
2017-02-22T15:24:02.580Z,12.45
2017-02-22T15:26:26.191Z,12.32
2017-02-22T15:28:50.678Z,12.37
2017-02-22T15:31:14.231Z,12.26
2017-02-22T15:33:37.603Z,12.37
2017-02-22T15:36:01.067Z,12.12
2017-02-22T15:38:24.687Z,12.4
2017-02-22T15:40:48.161Z,12.12
2017-02-22T15:43:11.677Z,12.55
2017-02-22T15:45:35.096Z,12.26
2017-02-22T15:47:58.672Z,12.18
2017-02-22T15:50:22.151Z,12.25
2017-02-22T15:52:45.654Z,12.21
2017-02-22T15:55:08.941Z,12.26
2017-02-22T15:57:32.588Z,12.17
2017-02-22T15:59:56.173Z,12.28
2017-02-22T16:02:19.825Z,12.25
2017-02-22T16:04:32.652Z,12.26
2017-02-22T16:06:56.973Z,12.02
2017-02-22T16:09:20.408Z,12.25
2017-02-22T16:11:44.341Z,12.17
2017-02-22T16:14:11.055Z,12.25
2017-02-22T16:16:34.847Z,12.07
2017-02-22T16:18:58.352Z,12.26
2017-02-22T16:21:21.994Z,12.03
2017-02-22T16:23:46.852Z,12.11
2017-02-22T16:26:10.005Z,11.91
2017-02-22T16:27:46.181Z,11.93
2017-02-22T16:30:09.832Z,11.8
2017-02-22T16:32:24.841Z,11.81
2017-02-22T16:34:48.263Z,11.7
2017-02-22T16:37:12.534Z,11.6
2017-02-22T16:39:35.931Z,11.73
2017-02-22T16:41:50.883Z,11.65
2017-02-22T16:44:14.235Z,11.86
2017-02-22T16:46:37.608Z,11.74
2017-02-22T16:49:00.961Z,11.67
2017-02-22T16:51:02.597Z,11.67
2017-02-22T16:53:26.064Z,11.68
2017-02-22T16:55:50.619Z,11.59
2017-02-22T16:58:14.010Z,11.65
2017-02-22T17:00:37.484Z,11.53
2017-02-22T17:03:00.843Z,11.52
2017-02-22T17:05:25.248Z,11.63
2017-02-22T17:07:49.368Z,11.56
2017-02-22T17:10:13.736Z,11.49
2017-02-22T17:12:37.248Z,11.41
2017-02-22T17:15:00.722Z,11.52
2017-02-22T17:17:24.179Z,11.43
2017-02-22T17:19:47.493Z,11.58
2017-02-22T17:22:02.427Z,11.58
2017-02-22T17:24:25.981Z,11.55
2017-02-22T17:26:49.287Z,11.59
2017-02-22T17:29:12.765Z,11.53
2017-02-22T17:31:36.034Z,11.51
2017-02-22T17:33:59.448Z,11.48
2017-02-22T17:36:23.041Z,11.45
2017-02-22T17:38:46.709Z,11.48
2017-02-22T17:41:10.367Z,11.37
2017-02-22T17:43:33.820Z,11.37
2017-02-22T17:45:57.488Z,11.44
2017-02-22T17:48:21.396Z,11.4
2017-02-22T17:50:45.923Z,11.31
2017-02-22T17:53:10.319Z,11.35
2017-02-22T17:55:34.103Z,11.27
2017-02-22T17:57:59.538Z,11.26
2017-02-22T18:00:22.973Z,11.4
2017-02-22T18:02:46.622Z,11.49
2017-02-22T18:05:09.991Z,11.45
2017-02-22T18:07:33.585Z,11.6
2017-02-22T18:10:03.615Z,11.34
2017-02-22T18:12:28.483Z,11.44
2017-02-22T18:14:52.560Z,11.37
2017-02-22T18:17:16.629Z,11.49
2017-02-22T18:19:48.578Z,11.55
2017-02-22T18:22:13.199Z,11.33
2017-02-22T18:24:36.708Z,11.37
2017-02-22T18:27:00.325Z,11.35
2017-02-22T18:29:25.066Z,11.3
2017-02-22T18:31:49.557Z,11.26
2017-02-22T18:34:16.744Z,11.33
2017-02-22T18:36:40.807Z,11.4
2017-02-22T18:39:04.280Z,11.35
2017-02-22T18:43:57.174Z,11.31
2017-02-22T18:46:36.691Z,11.56
2017-02-22T18:49:01.096Z,11.43
2017-02-22T19:00:25.404Z,11.65
2017-02-22T19:02:59.066Z,11.55
2017-02-22T19:05:23.547Z,11.67
2017-02-22T19:09:29.244Z,11.63
2017-02-22T19:14:30.685Z,11.41
2017-02-22T19:16:54.953Z,11.49
2017-02-22T19:19:33.674Z,11.35
2017-02-22T19:22:01.974Z,11.41
2017-02-22T19:26:08.452Z,11.45
2017-02-22T19:28:45.171Z,11.27
2017-02-22T19:31:10.205Z,11.31
2017-02-22T19:33:34.984Z,11.35
2017-02-22T19:37:35.285Z,11.49
2017-02-22T19:40:15.843Z,11.45
2017-02-22T19:42:39.478Z,11.52
2017-02-22T19:45:07.452Z,11.6
2017-02-22T19:47:34.573Z,11.34
2017-02-22T19:49:59.236Z,11.34
2017-02-22T19:52:14.457Z,11.51
2017-02-22T19:55:18.015Z,11.49
2017-02-22T19:57:41.505Z,11.48
2017-02-22T20:00:05.305Z,11.33
2017-02-22T20:02:28.887Z,11.34
2017-02-22T20:04:52.580Z,11.48
2017-02-22T20:07:17.093Z,11.55
2017-02-22T20:09:41.433Z,11.6
2017-02-22T20:12:05.316Z,11.44
2017-02-22T20:14:28.995Z,11.35
2017-02-22T20:16:52.719Z,11.44
2017-02-22T20:18:30.189Z,11.53
2017-02-22T20:20:54.643Z,11.58
2017-02-22T20:23:18.452Z,11.49
2017-02-22T20:25:42.466Z,11.38
2017-02-22T20:28:07.269Z,11.52
2017-02-22T20:30:31.015Z,11.31
2017-02-22T20:32:54.916Z,11.41
2017-02-22T20:35:18.393Z,11.31
2017-02-22T20:37:42.588Z,11.4
2017-02-22T20:40:08.312Z,11.51
2017-02-22T20:42:32.427Z,11.4
2017-02-22T20:44:57.235Z,11.35
2017-02-22T20:47:20.626Z,11.37
2017-02-22T20:49:45.007Z,11.23
2017-02-22T20:52:09.748Z,11.08
2017-02-22T20:54:33.878Z,11.18
2017-02-22T20:57:00.156Z,11.13
2017-02-22T20:59:17.591Z,11.26
2017-02-22T21:01:41.415Z,11.31
2017-02-22T21:04:04.892Z,11.05
2017-02-22T21:06:28.769Z,11.05
2017-02-22T21:08:52.960Z,11
2017-02-22T21:11:16.636Z,11.13
2017-02-22T21:13:40.420Z,11.35
2017-02-22T21:16:04.868Z,11.31
2017-02-22T21:18:28.348Z,11.33
2017-02-22T21:20:55.053Z,11.23
2017-02-22T21:23:18.748Z,11.26
2017-02-22T21:25:42.357Z,11.35
2017-02-22T21:28:06.186Z,11.2
2017-02-22T21:30:29.710Z,11.25
2017-02-22T21:32:40.473Z,11.23
2017-02-22T21:35:04.032Z,11.3
2017-02-22T21:37:27.576Z,11.25
2017-02-22T21:39:51.059Z,11.2
2017-02-22T21:42:14.575Z,11.15
2017-02-22T21:44:38.239Z,11.19
2017-02-22T21:47:02.823Z,11.13
2017-02-22T21:49:26.344Z,11
2017-02-22T21:51:51.167Z,11.07
2017-02-22T21:54:14.895Z,11.15
2017-02-22T21:56:38.395Z,10.9
2017-02-22T21:59:02.686Z,10.9
2017-02-22T22:01:26.125Z,11
2017-02-22T22:03:52.344Z,10.87
2017-02-22T22:06:02.905Z,11
2017-02-22T22:08:26.680Z,10.94
2017-02-22T22:10:50.111Z,10.75
2017-02-22T22:13:15.403Z,10.71
2017-02-22T22:15:17.645Z,10.75
2017-02-22T22:17:41.883Z,10.57
2017-02-22T22:20:05.182Z,10.71
2017-02-22T22:22:35.630Z,10.53
2017-02-22T22:24:58.984Z,10.77
2017-02-22T22:27:22.457Z,10.71
2017-02-22T22:29:45.949Z,10.68
2017-02-22T22:32:09.381Z,10.64
2017-02-22T22:34:32.752Z,10.61
2017-02-22T22:36:56.367Z,10.69
2017-02-22T22:39:20.946Z,10.67
2017-02-22T22:41:45.874Z,10.59
2017-02-22T22:44:10.010Z,10.71
2017-02-22T22:46:42.209Z,10.8
2017-02-22T22:53:31.507Z,10.9
2017-02-22T22:55:59.279Z,10.83
2017-02-22T22:58:22.781Z,10.86
2017-02-22T23:00:48.448Z,10.83
2017-02-22T23:04:04.007Z,10.94
2017-02-22T23:06:29.117Z,10.83
2017-02-22T23:08:53.297Z,10.71
2017-02-22T23:12:57.703Z,10.79
2017-02-22T23:15:22.108Z,10.79
2017-02-22T23:17:56.997Z,10.8
2017-02-22T23:20:23.077Z,10.77
2017-02-22T23:23:03.859Z,10.65
2017-02-22T23:25:42.899Z,10.75
2017-02-22T23:28:06.618Z,10.68
2017-02-22T23:30:46.446Z,10.77
2017-02-22T23:33:26.232Z,10.79
2017-02-22T23:35:52.001Z,10.9
2017-02-22T23:38:16.319Z,10.82
2017-02-22T23:40:41.053Z,10.98
2017-02-22T23:43:14.520Z,10.83
2017-02-22T23:45:41.425Z,10.84
2017-02-22T23:48:13.009Z,10.87
2017-02-22T23:50:37.717Z,10.68
2017-02-22T23:53:02.199Z,10.87
2017-02-22T23:55:27.498Z,10.79
2017-02-22T23:57:51.303Z,10.69
2017-02-22T23:59:29.196Z,10.86
